createdAt,value
2019-02-26T00:00:42.273Z,21.70
2019-02-26T00:03:07.959Z,21.17
2019-02-26T00:05:35.488Z,23.33
2019-02-26T00:08:02.984Z,23.17
2019-02-26T00:10:31.480Z,23.43
2019-02-26T00:12:59.816Z,26.33
2019-02-26T00:15:29.456Z,27.30
2019-02-26T00:17:56.615Z,24.53
2019-02-26T00:20:24.144Z,24.53
2019-02-26T00:22:53.553Z,35.30
2019-02-26T00:25:20.985Z,27.00
2019-02-26T00:27:49.555Z,25.53
2019-02-26T00:30:18.668Z,30.47
2019-02-26T00:32:46.213Z,30.77
2019-02-26T00:35:13.698Z,30.57
2019-02-26T00:37:41.237Z,33.23
2019-02-26T00:40:10.061Z,34.73
2019-02-26T00:42:38.077Z,27.67
2019-02-26T00:45:07.856Z,28.57
2019-02-26T00:47:36.293Z,34.07
2019-02-26T00:50:05.544Z,27.63
2019-02-26T00:52:34.827Z,20.90
2019-02-26T00:55:05.415Z,33.87
2019-02-26T00:57:33.542Z,25.20
2019-02-26T01:00:03.394Z,22.27
2019-02-26T01:02:31.824Z,19.03
2019-02-26T01:04:59.430Z,17.90
2019-02-26T01:07:28.204Z,22.83
2019-02-26T01:09:56.947Z,26.30
2019-02-26T01:12:25.002Z,20.73
2019-02-26T01:14:52.485Z,21.30
2019-02-26T01:17:19.955Z,23.90
2019-02-26T01:19:47.521Z,19.77
2019-02-26T01:22:15.100Z,27.87
2019-02-26T01:24:42.586Z,23.60
2019-02-26T01:27:10.172Z,30.10
2019-02-26T01:29:37.650Z,26.77
2019-02-26T01:32:08.889Z,24.53
2019-02-26T01:34:34.537Z,26.00
2019-02-26T01:37:03.160Z,24.07
2019-02-26T01:39:31.355Z,26.73
2019-02-26T01:41:58.907Z,26.23
2019-02-26T01:44:30.175Z,29.60
2019-02-26T01:46:57.775Z,25.90
2019-02-26T01:49:26.633Z,23.53
2019-02-26T01:51:54.344Z,25.47
2019-02-26T01:54:21.865Z,23.43
2019-02-26T01:56:52.669Z,25.10
2019-02-26T01:59:19.170Z,19.03
2019-02-26T02:01:48.905Z,25.33
2019-02-26T02:04:17.143Z,24.03
2019-02-26T02:06:45.630Z,24.87
2019-02-26T02:09:13.987Z,27.47
2019-02-26T02:11:42.405Z,21.53
2019-02-26T02:14:10.357Z,27.47
2019-02-26T02:16:39.306Z,24.40
2019-02-26T02:19:06.836Z,33.13
2019-02-26T02:21:35.711Z,24.43
2019-02-26T02:24:03.322Z,21.67
2019-02-26T02:26:30.855Z,25.37
2019-02-26T02:28:58.365Z,24.70
2019-02-26T02:31:30.286Z,22.47
2019-02-26T02:33:55.157Z,25.03
2019-02-26T02:36:23.669Z,25.73
2019-02-26T02:38:52.011Z,25.77
2019-02-26T02:41:19.559Z,28.53
2019-02-26T02:43:47.038Z,25.20
2019-02-26T02:46:14.527Z,23.17
2019-02-26T02:48:42.329Z,23.60
2019-02-26T02:51:13.172Z,19.77
2019-02-26T02:53:39.135Z,22.53
2019-02-26T02:56:09.842Z,22.57
2019-02-26T02:58:38.429Z,25.97
2019-02-26T03:01:05.555Z,22.57
2019-02-26T03:03:33.035Z,29.43
2019-02-26T03:06:01.797Z,22.43
2019-02-26T03:08:30.115Z,24.80
2019-02-26T03:10:57.584Z,26.40
2019-02-26T03:13:26.018Z,23.50
2019-02-26T03:15:56.631Z,28.53
2019-02-26T03:18:24.060Z,25.80
2019-02-26T03:21:10.981Z,27.10
2019-02-26T03:23:41.256Z,30.87
2019-02-26T03:26:10.048Z,28.20
2019-02-26T03:28:39.506Z,26.57
2019-02-26T03:31:06.595Z,28.00
2019-02-26T03:33:34.243Z,27.57
2019-02-26T03:36:05.460Z,21.30
2019-02-26T03:38:31.100Z,26.77
2019-02-26T03:41:01.107Z,25.20
2019-02-26T03:43:28.703Z,28.57
2019-02-26T03:45:57.274Z,25.83
2019-02-26T03:48:24.810Z,23.53
2019-02-26T03:50:52.374Z,23.80
2019-02-26T03:53:19.932Z,23.23
2019-02-26T03:55:47.418Z,27.40
2019-02-26T03:58:15.150Z,30.47
2019-02-26T04:00:43.940Z,22.97
2019-02-26T04:03:14.624Z,30.07
2019-02-26T04:05:41.428Z,28.27
2019-02-26T04:08:09.245Z,23.90
2019-02-26T04:10:37.008Z,23.17
2019-02-26T04:13:04.440Z,26.53
2019-02-26T04:15:33.470Z,27.30
2019-02-26T04:18:01.507Z,24.80
2019-02-26T04:20:29.098Z,28.13
2019-02-26T04:22:57.039Z,22.70
2019-02-26T04:25:57.615Z,29.60
2019-02-26T04:28:33.513Z,25.00
2019-02-26T04:31:35.552Z,27.53
2019-02-26T04:34:42.728Z,22.57
2019-02-26T04:37:47.112Z,27.87
2019-02-26T04:41:12.605Z,25.30
2019-02-26T04:44:08.060Z,21.23
2019-02-26T04:47:15.107Z,22.73
2019-02-26T04:49:43.176Z,28.60
2019-02-26T04:52:14.237Z,26.83
2019-02-26T04:54:40.388Z,28.13
2019-02-26T04:57:07.889Z,27.60
2019-02-26T04:59:37.898Z,27.70
2019-02-26T05:02:04.729Z,24.50
2019-02-26T05:04:34.106Z,29.93
2019-02-26T05:07:04.422Z,24.73
2019-02-26T05:09:33.341Z,25.27
2019-02-26T05:12:00.466Z,26.70
2019-02-26T05:14:28.319Z,29.10
2019-02-26T05:16:55.974Z,28.43
2019-02-26T05:19:24.394Z,31.23
2019-02-26T05:21:53.462Z,31.97
2019-02-26T05:24:21.834Z,29.60
2019-02-26T05:26:50.655Z,26.07
2019-02-26T05:29:18.361Z,25.03
2019-02-26T05:31:45.793Z,24.63
2019-02-26T05:34:18.167Z,24.50
2019-02-26T05:36:46.170Z,26.60
2019-02-26T05:39:14.619Z,29.83
2019-02-26T05:41:43.699Z,25.73
2019-02-26T05:44:11.264Z,28.53
2019-02-26T05:46:38.791Z,25.57
2019-02-26T05:49:09.708Z,26.50
2019-02-26T05:51:38.065Z,25.43
2019-02-26T05:54:07.756Z,21.70
2019-02-26T05:56:37.008Z,23.87
2019-02-26T05:59:06.788Z,24.50
2019-02-26T06:01:33.157Z,22.63
2019-02-26T06:04:00.652Z,30.00
2019-02-26T06:06:28.101Z,24.23
2019-02-26T06:08:57.429Z,35.30
2019-02-26T06:11:28.345Z,34.87
2019-02-26T06:13:56.299Z,29.83
2019-02-26T06:16:24.381Z,37.10
2019-02-26T06:18:54.447Z,29.10
2019-02-26T06:21:23.597Z,30.33
2019-02-26T06:23:51.730Z,28.53
2019-02-26T06:26:19.449Z,26.47
2019-02-26T06:28:52.923Z,28.50
2019-02-26T06:31:22.208Z,27.23
2019-02-26T06:33:50.697Z,32.83
2019-02-26T06:36:19.214Z,33.20
2019-02-26T06:38:49.710Z,32.17
2019-02-26T06:41:16.951Z,28.73
2019-02-26T06:43:47.715Z,30.83
2019-02-26T06:46:14.137Z,28.10
2019-02-26T06:48:41.596Z,29.33
2019-02-26T06:51:09.054Z,32.53
2019-02-26T06:53:36.520Z,31.90
2019-02-26T06:56:04.038Z,33.07
2019-02-26T06:58:31.515Z,32.73
2019-02-26T07:00:59.323Z,26.73
2019-02-26T07:03:26.784Z,38.53
2019-02-26T07:05:54.259Z,37.63
2019-02-26T07:08:23.677Z,27.27
2019-02-26T07:10:51.065Z,39.17
2019-02-26T07:13:18.482Z,26.07
2019-02-26T07:15:46.011Z,29.57
2019-02-26T07:18:16.945Z,28.40
2019-02-26T07:20:46.653Z,28.50
2019-02-26T07:23:12.926Z,36.50
2019-02-26T07:25:43.981Z,26.03
2019-02-26T07:28:10.847Z,27.40
2019-02-26T07:30:39.891Z,28.23
2019-02-26T07:33:09.846Z,30.20
2019-02-26T07:35:37.404Z,31.20
2019-02-26T07:38:06.495Z,31.03
2019-02-26T07:40:35.932Z,30.90
2019-02-26T07:43:06.998Z,32.73
2019-02-26T07:45:32.846Z,37.40
2019-02-26T07:48:01.010Z,32.57
2019-02-26T07:50:31.269Z,30.30
2019-02-26T07:52:59.410Z,35.33
2019-02-26T07:55:27.664Z,35.97
2019-02-26T07:57:55.312Z,37.73
2019-02-26T08:00:23.191Z,30.03
2019-02-26T08:02:52.028Z,39.03
2019-02-26T08:05:21.209Z,41.30
2019-02-26T08:07:51.227Z,39.33
2019-02-26T08:10:19.546Z,34.77
2019-02-26T08:12:47.212Z,34.20
2019-02-26T08:15:15.726Z,30.77
2019-02-26T08:17:45.575Z,27.77
2019-02-26T08:20:14.910Z,31.13
2019-02-26T08:22:42.513Z,34.70
2019-02-26T08:25:10.307Z,29.97
2019-02-26T08:27:37.993Z,24.67
2019-02-26T08:30:08.584Z,34.57
2019-02-26T08:32:36.155Z,33.60
2019-02-26T08:35:04.163Z,33.30
2019-02-26T08:37:31.667Z,31.77
2019-02-26T08:39:59.188Z,29.03
2019-02-26T08:42:26.669Z,37.70
2019-02-26T08:44:55.857Z,34.73
2019-02-26T08:47:23.572Z,29.60
2019-02-26T08:49:51.053Z,27.93
2019-02-26T08:52:21.507Z,35.43
2019-02-26T08:54:47.866Z,32.87
2019-02-26T08:57:15.344Z,24.63
2019-02-26T08:59:45.273Z,32.93
2019-02-26T09:02:12.129Z,27.30
2019-02-26T09:04:40.718Z,25.73
2019-02-26T09:07:08.867Z,31.50
2019-02-26T09:09:36.346Z,22.97
2019-02-26T09:12:03.797Z,31.47
2019-02-26T09:14:34.389Z,28.75
2019-02-26T09:17:02.074Z,30.70
2019-02-26T09:19:31.096Z,23.98
2019-02-26T09:21:59.494Z,30.52
2019-02-26T09:24:27.325Z,26.75
2019-02-26T09:26:57.230Z,26.42
2019-02-26T09:29:24.080Z,31.52
2019-02-26T09:31:51.736Z,30.32
2019-02-26T09:34:19.233Z,26.70
2019-02-26T09:36:50.634Z,21.82
2019-02-26T09:39:15.983Z,22.50
2019-02-26T09:41:45.541Z,20.72
2019-02-26T09:44:12.776Z,18.10
2019-02-26T09:46:41.951Z,25.27
2019-02-26T09:49:12.308Z,28.25
2019-02-26T09:51:39.970Z,26.25
2019-02-26T09:54:07.543Z,23.27
2019-02-26T09:56:35.026Z,21.23
2019-02-26T09:59:04.621Z,23.07
2019-02-26T10:01:33.690Z,25.82
2019-02-26T10:04:03.094Z,21.33
2019-02-26T10:06:30.397Z,32.08
2019-02-26T10:08:58.609Z,21.90
2019-02-26T10:11:28.030Z,20.15
2019-02-26T10:13:55.520Z,18.27
2019-02-26T10:16:23.898Z,23.42
2019-02-26T10:18:54.352Z,20.60
2019-02-26T10:21:21.581Z,22.07
2019-02-26T10:23:51.461Z,30.43
2019-02-26T10:26:18.355Z,23.50
2019-02-26T10:28:51.049Z,23.83
2019-02-26T10:31:15.419Z,23.55
2019-02-26T10:33:45.305Z,21.35
2019-02-26T10:36:15.398Z,22.62
2019-02-26T10:38:41.819Z,15.20
2019-02-26T10:41:09.293Z,24.27
2019-02-26T10:43:36.775Z,27.40
2019-02-26T10:46:04.255Z,21.12
2019-02-26T10:48:31.732Z,17.95
2019-02-26T10:50:59.218Z,22.90
2019-02-26T10:53:27.619Z,26.77
2019-02-26T10:55:55.071Z,16.20
2019-02-26T10:58:22.569Z,19.82
2019-02-26T11:00:55.519Z,22.62
2019-02-26T11:03:22.465Z,17.07
2019-02-26T11:05:52.148Z,19.90
2019-02-26T11:08:20.786Z,22.10
2019-02-26T11:10:50.236Z,22.17
2019-02-26T11:13:20.957Z,21.33
2019-02-26T11:15:48.867Z,17.35
2019-02-26T11:18:18.121Z,26.07
2019-02-26T11:20:49.703Z,23.45
2019-02-26T11:23:16.293Z,19.25
2019-02-26T11:25:43.760Z,17.82
2019-02-26T11:28:12.976Z,15.28
2019-02-26T11:30:40.809Z,17.12
2019-02-26T11:33:10.736Z,16.52
2019-02-26T11:35:39.692Z,23.62
2019-02-26T11:38:09.113Z,31.45
2019-02-26T11:40:36.191Z,19.42
2019-02-26T11:43:11.279Z,20.85
2019-02-26T11:45:35.191Z,17.10
2019-02-26T11:48:03.722Z,18.02
2019-02-26T11:50:31.692Z,15.65
2019-02-26T11:52:59.151Z,14.85
2019-02-26T11:55:29.200Z,12.85
2019-02-26T11:57:55.902Z,19.37
2019-02-26T12:00:33.849Z,16.23
2019-02-26T12:02:58.063Z,13.68
2019-02-26T12:05:31.453Z,13.75
2019-02-26T12:07:56.348Z,11.50
2019-02-26T12:10:27.109Z,11.50
2019-02-26T12:12:54.603Z,13.58
2019-02-26T12:15:23.163Z,10.80
2019-02-26T12:17:51.767Z,11.28
2019-02-26T12:20:21.890Z,12.35
2019-02-26T12:22:49.805Z,15.85
2019-02-26T12:25:18.852Z,13.48
2019-02-26T12:27:48.186Z,11.85
2019-02-26T12:30:37.656Z,11.50
2019-02-26T12:33:07.666Z,12.30
2019-02-26T12:35:38.009Z,16.30
2019-02-26T12:38:17.379Z,15.55
2019-02-26T12:40:37.919Z,12.70
2019-02-26T12:43:08.333Z,16.70
2019-02-26T12:45:38.700Z,15.98
2019-02-26T12:48:06.514Z,12.58
2019-02-26T12:50:36.749Z,22.45
2019-02-26T12:53:05.798Z,20.32
2019-02-26T12:55:35.869Z,16.65
2019-02-26T12:58:04.280Z,16.87
2019-02-26T13:00:34.951Z,15.83
2019-02-26T13:03:05.572Z,15.13
2019-02-26T13:05:35.312Z,17.10
2019-02-26T13:08:03.298Z,15.85
2019-02-26T13:10:31.288Z,15.43
2019-02-26T13:13:02.880Z,21.42
2019-02-26T13:15:28.668Z,20.25
2019-02-26T13:17:56.196Z,14.25
2019-02-26T13:20:23.739Z,19.32
2019-02-26T13:22:56.406Z,12.20
2019-02-26T13:25:34.543Z,16.48
2019-02-26T13:28:02.188Z,16.42
2019-02-26T13:30:30.084Z,12.58
2019-02-26T13:33:00.956Z,15.98
2019-02-26T13:35:27.279Z,16.82
2019-02-26T13:37:54.854Z,20.92
2019-02-26T13:40:22.439Z,16.52
2019-02-26T13:45:20.516Z,14.33
2019-02-26T13:47:48.592Z,15.98
2019-02-26T13:50:19.989Z,16.20
2019-02-26T13:52:47.577Z,14.58
2019-02-26T13:55:15.077Z,15.28
2019-02-26T13:57:42.564Z,14.80
2019-02-26T14:00:11.319Z,16.05
2019-02-26T14:02:38.882Z,15.03
2019-02-26T14:05:07.549Z,17.32
2019-02-26T14:07:37.684Z,14.28
2019-02-26T14:10:07.049Z,16.57
2019-02-26T14:12:35.551Z,15.75
2019-02-26T14:15:03.859Z,13.40
2019-02-26T14:17:31.809Z,16.77
2019-02-26T14:19:59.426Z,15.38
2019-02-26T14:22:27.019Z,17.42
2019-02-26T14:24:54.564Z,16.85
2019-02-26T14:27:22.083Z,15.38
2019-02-26T14:29:50.184Z,14.50
2019-02-26T14:32:17.735Z,14.95
2019-02-26T14:34:45.285Z,14.33
2019-02-26T14:37:12.847Z,8.80
2019-02-26T14:39:42.587Z,7.42
2019-02-26T14:42:10.469Z,7.83
2019-02-26T14:44:38.061Z,8.18
2019-02-26T14:47:06.148Z,9.43
2019-02-26T14:49:33.736Z,9.00
2019-02-26T14:52:01.255Z,10.25
2019-02-26T14:54:28.838Z,6.10
2019-02-26T14:56:56.411Z,9.25
2019-02-26T14:59:24.430Z,11.83
2019-02-26T15:01:51.958Z,9.65
2019-02-26T15:04:19.751Z,9.95
2019-02-26T15:06:47.295Z,7.70
2019-02-26T15:09:14.977Z,8.40
2019-02-26T15:11:42.719Z,9.83
2019-02-26T15:14:10.277Z,9.20
2019-02-26T15:16:37.806Z,14.35
2019-02-26T15:19:05.610Z,9.30
2019-02-26T15:21:33.170Z,10.80
2019-02-26T15:24:01.168Z,18.00
2019-02-26T15:26:28.759Z,14.38
2019-02-26T15:28:58.006Z,13.10
2019-02-26T15:31:26.423Z,11.57
2019-02-26T15:33:54.879Z,9.98
2019-02-26T15:36:23.024Z,15.28
2019-02-26T15:39:21.423Z,15.75
2019-02-26T15:41:50.555Z,15.03
2019-02-26T15:44:18.189Z,18.23
2019-02-26T15:46:46.152Z,19.95
2019-02-26T15:49:14.088Z,13.93
2019-02-26T15:51:41.623Z,13.62
2019-02-26T15:54:12.557Z,17.70
2019-02-26T15:56:40.930Z,14.25
2019-02-26T15:59:08.472Z,16.48
2019-02-26T16:01:36.044Z,16.10
2019-02-26T16:04:03.654Z,14.90
2019-02-26T16:06:31.333Z,17.37
2019-02-26T16:08:58.900Z,14.73
2019-02-26T16:11:27.157Z,14.05
2019-02-26T16:13:54.979Z,13.20
2019-02-26T16:16:22.523Z,17.48
2019-02-26T16:18:50.034Z,15.75
2019-02-26T16:21:19.292Z,18.48
2019-02-26T16:23:47.031Z,14.65
2019-02-26T16:26:14.750Z,16.12
2019-02-26T16:28:42.753Z,17.10
2019-02-26T16:31:10.290Z,16.93
2019-02-26T16:33:37.862Z,14.40
2019-02-26T16:36:05.453Z,18.23
2019-02-26T16:38:33.240Z,14.87
2019-02-26T16:41:02.819Z,15.55
2019-02-26T16:43:30.256Z,16.07
2019-02-26T16:45:57.799Z,16.95
2019-02-26T16:48:25.410Z,18.20
2019-02-26T16:50:52.940Z,14.78
2019-02-26T16:53:20.506Z,16.97
2019-02-26T16:55:49.137Z,16.60
2019-02-26T16:58:17.406Z,18.57
2019-02-26T17:00:46.525Z,21.10
2019-02-26T17:03:14.470Z,21.90
2019-02-26T17:05:42.154Z,20.35
2019-02-26T17:08:12.297Z,20.68
2019-02-26T17:10:40.094Z,22.02
2019-02-26T17:13:07.691Z,26.42
2019-02-26T17:15:35.587Z,30.75
2019-02-26T17:18:03.315Z,22.55
2019-02-26T17:20:30.814Z,21.50
2019-02-26T17:22:58.273Z,25.20
2019-02-26T17:25:28.474Z,27.77
2019-02-26T17:27:55.542Z,23.07
2019-02-26T17:30:23.879Z,32.83
2019-02-26T17:32:52.095Z,29.55
2019-02-26T17:35:19.569Z,24.52
2019-02-26T17:37:47.089Z,25.70
2019-02-26T17:40:15.617Z,24.80
2019-02-26T17:42:43.819Z,16.45
2019-02-26T17:45:13.576Z,20.20
2019-02-26T17:47:41.565Z,21.37
2019-02-26T17:50:12.595Z,19.25
2019-02-26T17:52:40.186Z,21.42
2019-02-26T17:55:09.497Z,18.77
2019-02-26T17:57:37.168Z,23.67
2019-02-26T18:00:06.968Z,22.58
2019-02-26T18:02:35.129Z,23.80
2019-02-26T18:05:02.803Z,22.55
2019-02-26T18:07:31.939Z,29.57
2019-02-26T18:09:59.890Z,26.12
2019-02-26T18:12:28.100Z,23.35
2019-02-26T18:14:56.179Z,32.53
2019-02-26T18:17:23.940Z,30.80
2019-02-26T18:19:52.177Z,27.35
2019-02-26T18:22:21.881Z,23.45
2019-02-26T18:24:49.417Z,25.23
2019-02-26T18:27:17.300Z,26.42
2019-02-26T18:29:44.865Z,27.93
2019-02-26T18:32:12.473Z,26.42
2019-02-26T18:34:40.014Z,24.63
2019-02-26T18:37:07.592Z,24.98
2019-02-26T18:39:35.061Z,19.92
2019-02-26T18:42:02.584Z,23.20
2019-02-26T18:44:30.105Z,24.00
2019-02-26T18:46:57.668Z,31.37
2019-02-26T18:49:25.508Z,28.98
2019-02-26T18:51:52.962Z,25.55
2019-02-26T18:54:21.105Z,26.85
2019-02-26T18:56:48.739Z,24.45
2019-02-26T18:59:16.288Z,21.57
2019-02-26T19:01:43.784Z,27.10
2019-02-26T19:04:11.303Z,35.70
2019-02-26T19:06:38.852Z,32.77
2019-02-26T19:09:07.152Z,32.63
2019-02-26T19:11:34.748Z,27.37
2019-02-26T19:14:02.552Z,36.97
2019-02-26T19:16:30.042Z,30.27
2019-02-26T19:18:58.207Z,35.17
2019-02-26T19:21:26.024Z,35.10
2019-02-26T19:23:53.592Z,36.10
2019-02-26T19:26:23.715Z,31.73
2019-02-26T19:28:51.428Z,27.33
2019-02-26T19:31:18.899Z,39.50
2019-02-26T19:33:46.466Z,38.80
2019-02-26T19:36:14.065Z,38.10
2019-02-26T19:38:41.656Z,33.03
2019-02-26T19:41:12.654Z,37.07
2019-02-26T19:43:40.316Z,39.43
2019-02-26T19:46:07.797Z,27.23
2019-02-26T19:48:35.291Z,24.97
2019-02-26T19:51:02.860Z,21.33
2019-02-26T19:53:34.435Z,34.57
2019-02-26T19:56:00.566Z,25.43
2019-02-26T19:58:28.165Z,27.90
2019-02-26T20:00:55.743Z,24.33
2019-02-26T20:03:23.219Z,28.47
2019-02-26T20:05:50.775Z,38.30
2019-02-26T20:08:18.665Z,27.13
2019-02-26T20:10:48.744Z,24.90
2019-02-26T20:13:17.938Z,34.80
2019-02-26T20:15:45.433Z,24.60
2019-02-26T20:18:20.607Z,26.73
2019-02-26T20:20:45.665Z,28.73
2019-02-26T20:23:12.958Z,23.80
2019-02-26T20:25:42.470Z,35.20
2019-02-26T20:28:11.118Z,32.43
2019-02-26T20:30:38.659Z,25.93
2019-02-26T20:33:06.759Z,26.43
2019-02-26T20:35:34.829Z,29.90
2019-02-26T20:38:02.322Z,27.40
2019-02-26T20:40:29.913Z,28.53
2019-02-26T20:43:01.334Z,29.37
2019-02-26T20:45:26.716Z,32.93
2019-02-26T20:47:54.202Z,23.93
2019-02-26T20:50:23.400Z,25.03
2019-02-26T20:52:51.019Z,24.67
2019-02-26T20:55:19.254Z,22.87
2019-02-26T20:57:47.407Z,25.17
2019-02-26T21:00:16.176Z,23.27
2019-02-26T21:02:43.674Z,24.80
2019-02-26T21:05:11.309Z,21.87
2019-02-26T21:07:39.085Z,23.67
2019-02-26T21:10:07.513Z,23.40
2019-02-26T21:12:34.994Z,19.40
2019-02-26T21:15:02.721Z,22.07
2019-02-26T21:17:30.183Z,22.07
2019-02-26T21:19:57.722Z,20.30
2019-02-26T21:22:25.268Z,21.00
2019-02-26T21:24:52.767Z,23.47
2019-02-26T21:27:20.294Z,23.47
2019-02-26T21:29:47.766Z,25.00
2019-02-26T21:32:15.429Z,27.13
2019-02-26T21:34:42.998Z,29.57
2019-02-26T21:37:10.503Z,30.40
2019-02-26T21:39:37.979Z,30.53
2019-02-26T21:42:05.455Z,33.43
2019-02-26T21:44:32.948Z,31.57
2019-02-26T21:47:00.450Z,32.43
2019-02-26T21:49:27.914Z,29.83
2019-02-26T21:51:55.412Z,28.53
2019-02-26T21:54:24.813Z,23.60
2019-02-26T21:56:52.252Z,21.97
2019-02-26T21:59:19.707Z,28.07
2019-02-26T22:01:47.356Z,24.40
2019-02-26T22:04:14.908Z,25.33
2019-02-26T22:06:44.482Z,25.17
2019-02-26T22:09:12.086Z,22.47
2019-02-26T22:11:39.583Z,26.10
2019-02-26T22:14:07.109Z,24.33
2019-02-26T22:16:34.593Z,21.77
2019-02-26T22:19:02.165Z,23.37
2019-02-26T22:21:31.352Z,24.77
2019-02-26T22:23:58.859Z,25.00
2019-02-26T22:26:26.597Z,23.47
2019-02-26T22:28:54.165Z,25.73
2019-02-26T22:31:21.637Z,21.03
2019-02-26T22:33:49.519Z,24.67
2019-02-26T22:36:17.019Z,22.77
2019-02-26T22:38:46.146Z,29.50
2019-02-26T22:41:14.174Z,22.90
2019-02-26T22:43:41.628Z,22.47
2019-02-26T22:46:09.169Z,20.00
2019-02-26T22:48:36.959Z,18.40
2019-02-26T22:51:04.858Z,22.83
2019-02-26T22:53:36.420Z,21.73
2019-02-26T22:56:01.673Z,24.17
2019-02-26T22:58:29.425Z,22.50
2019-02-26T23:01:19.526Z,22.23
2019-02-26T23:03:47.047Z,20.17
2019-02-26T23:06:14.981Z,19.83
2019-02-26T23:08:44.869Z,23.23
2019-02-26T23:11:13.399Z,22.37
2019-02-26T23:13:41.114Z,19.90
2019-02-26T23:16:08.691Z,19.33
2019-02-26T23:18:36.235Z,19.37
2019-02-26T23:21:03.846Z,19.60
2019-02-26T23:23:31.301Z,18.20
2019-02-26T23:25:58.780Z,20.77
2019-02-26T23:28:26.275Z,21.70
2019-02-26T23:30:54.115Z,23.87
2019-02-26T23:33:21.651Z,19.13
2019-02-26T23:35:49.178Z,22.87
2019-02-26T23:38:16.672Z,26.00
2019-02-26T23:40:44.167Z,32.17
2019-02-26T23:43:12.469Z,25.03
2019-02-26T23:45:40.277Z,25.43
2019-02-26T23:48:08.700Z,31.00
2019-02-26T23:50:36.343Z,33.13
2019-02-26T23:53:03.931Z,25.50
2019-02-26T23:55:31.380Z,31.60
2019-02-26T23:57:58.862Z,27.73
